createdAt,value
2022-07-27T16:26:05.707Z,23.50
2022-07-27T16:28:39.327Z,23.40
2022-07-27T16:31:10.558Z,23.10
2022-07-27T16:33:38.944Z,22.90
2022-07-27T16:36:08.880Z,23.00
2022-07-27T16:38:48.054Z,22.90
2022-07-27T16:41:21.735Z,23.00
2022-07-27T16:43:49.484Z,23.10
2022-07-27T16:46:17.899Z,23.20
2022-07-27T16:48:45.980Z,23.30
2022-07-27T16:51:16.252Z,23.20
2022-07-27T16:53:48.414Z,23.20
2022-07-27T16:56:16.267Z,23.10
2022-07-27T16:58:44.851Z,22.90
2022-07-27T17:01:22.031Z,22.80
2022-07-27T17:03:56.572Z,22.80
2022-07-27T17:06:25.093Z,22.70
2022-07-27T17:08:52.981Z,22.70
2022-07-27T17:11:22.159Z,22.70
2022-07-27T17:13:51.299Z,22.60
2022-07-27T17:16:27.862Z,22.40
2022-07-27T17:18:55.996Z,22.20
2022-07-27T17:21:23.828Z,22.10
2022-07-27T17:23:52.426Z,22.00
2022-07-27T17:26:20.532Z,21.90
2022-07-27T17:28:52.339Z,21.80
2022-07-27T17:31:21.555Z,21.70
2022-07-27T17:33:50.355Z,21.60
2022-07-27T17:36:18.016Z,21.50
2022-07-27T17:38:47.286Z,21.50
2022-07-27T17:41:23.571Z,21.50
2022-07-27T17:43:52.961Z,21.50
2022-07-27T17:46:22.033Z,21.40
2022-07-27T17:48:50.124Z,21.30
2022-07-27T17:51:18.581Z,21.30
2022-07-27T17:53:46.990Z,21.20
2022-07-27T17:56:14.694Z,21.20
2022-07-27T17:58:44.375Z,21.20
2022-07-27T18:01:12.322Z,21.10
2022-07-27T18:03:41.341Z,21.00
2022-07-27T18:06:08.888Z,21.00
2022-07-27T18:08:37.056Z,20.90
2022-07-27T18:11:04.862Z,20.90
2022-07-27T18:13:37.945Z,20.90
2022-07-27T18:16:12.363Z,20.80
2022-07-27T18:18:41.616Z,20.80
2022-07-27T18:21:11.318Z,20.70
2022-07-27T18:23:39.844Z,20.60
2022-07-27T18:26:08.044Z,20.50
2022-07-27T18:28:39.553Z,20.30
2022-07-27T18:31:10.543Z,20.20
2022-07-27T18:33:40.662Z,20.10
2022-07-27T18:36:08.530Z,20.00
2022-07-27T18:38:35.990Z,20.00
2022-07-27T18:41:03.650Z,19.90
2022-07-27T18:43:31.566Z,19.80
2022-07-27T18:46:02.003Z,19.70
2022-07-27T18:48:30.073Z,19.60
2022-07-27T20:15:25.983Z,14.50
2022-07-27T20:17:53.556Z,14.20
2022-07-27T20:20:21.264Z,14.10
2022-07-27T20:22:48.933Z,14.00
2022-07-27T20:25:18.685Z,13.80
2022-07-27T20:27:47.532Z,13.60
2022-07-27T20:30:20.218Z,13.50
2022-07-27T20:32:49.327Z,13.40
2022-07-27T20:35:18.386Z,13.30
2022-07-27T20:37:47.606Z,13.20
2022-07-27T20:40:16.028Z,13.00
2022-07-27T20:42:44.058Z,12.90
2022-07-27T20:45:14.761Z,12.80
2022-07-27T20:47:43.751Z,12.80
2022-07-27T20:50:14.459Z,12.70
2022-07-27T20:52:42.903Z,12.70
2022-07-27T20:55:12.203Z,12.70
2022-07-27T20:57:40.139Z,12.70
2022-07-27T21:00:09.624Z,12.70
2022-07-27T21:10:03.878Z,12.80
2022-07-27T21:12:31.623Z,12.70
2022-07-27T21:15:00.510Z,12.60
2022-07-27T21:17:28.530Z,12.50
2022-07-27T21:22:24.315Z,12.40
2022-07-27T21:29:49.573Z,12.30
2022-07-27T21:32:18.306Z,12.30
2022-07-27T21:34:45.684Z,12.20
2022-07-27T21:37:13.373Z,12.10
2022-07-27T21:39:41.233Z,12.10
2022-07-27T21:42:08.815Z,12.00
2022-07-27T21:44:37.720Z,11.90
2022-07-27T21:47:13.089Z,11.80
2022-07-27T21:49:41.445Z,11.80
2022-07-27T21:52:09.264Z,11.80
2022-07-27T21:54:36.625Z,11.80
2022-07-27T21:57:04.338Z,11.90
2022-07-27T21:59:31.925Z,12.00
2022-07-27T22:02:01.138Z,12.00
2022-07-27T22:04:29.231Z,12.10
2022-07-27T22:06:57.200Z,12.20
2022-07-27T22:09:25.082Z,12.10
2022-07-27T22:11:52.674Z,12.10
2022-07-27T22:14:24.277Z,12.00
